Time;durP1;ratioP1;P1;durP2;ratioP2;P2;SDS_P1;SDS_P2;PMS_P1;PMS_P2;Temp;Humidity;BMP_temperature;BMP_pressure;BME280_temperature;BME280_humidity;BME280_pressure;Samples;Min_cycle;Max_cycle;Signal;HPM_P1;HPM_P2
2022/10/09 00:00:44;;;;;;;1.70;1.42;;;;;;;-140.72;100.00;52877.88;5051359;28;20029;-70
2022/10/09 00:03:09;;;;;;;2.72;1.95;;;;;;;-140.72;100.00;52906.28;5040532;28;20439;-69
2022/10/09 00:05:35;;;;;;;2.88;2.05;;;;;;;-140.72;100.00;52894.13;5046899;28;20021;-70
2022/10/09 00:08:00;;;;;;;3.42;2.25;;;;;;;-140.72;100.00;52906.28;5044140;28;20484;-69
2022/10/09 00:10:26;;;;;;;4.80;2.35;;;;;;;-140.72;100.00;52890.06;5045114;28;20029;-70
2022/10/09 00:12:55;;;;;;;2.92;2.00;;;;;;;-140.72;100.00;52877.88;5046730;28;20029;-70
2022/10/09 00:15:20;;;;;;;8.98;2.22;;;;;;;-140.72;100.00;52871.78;5046082;28;20057;-69
2022/10/09 00:17:46;;;;;;;3.95;2.00;;;;;;;-140.72;100.00;52886.00;5048809;28;20454;-70
2022/10/09 00:20:11;;;;;;;4.43;2.45;;;;;;;-140.72;100.00;52904.25;5039148;28;20495;-69
2022/10/09 00:22:37;;;;;;;4.20;1.90;;;;;;;-140.72;100.00;52853.53;5044797;28;20021;-69
2022/10/09 00:25:04;;;;;;;2.45;1.70;;;;;;;-140.72;100.00;52886.00;5038825;28;20060;-70
2022/10/09 00:27:32;;;;;;;5.38;2.03;;;;;;;-140.72;100.00;52922.53;5049611;28;20497;-70
2022/10/09 00:29:57;;;;;;;3.17;2.20;;;;;;;-140.72;100.00;52873.81;5050835;28;20025;-70
2022/10/09 00:32:23;;;;;;;7.57;2.13;;;;;;;-140.72;100.00;52914.41;5041266;28;20079;-69
2022/10/09 00:34:50;;;;;;;3.25;2.05;;;;;;;-140.72;100.00;52865.69;5044167;28;20025;-70
2022/10/09 00:37:16;;;;;;;3.58;1.85;;;;;;;-140.72;100.00;52886.00;5038529;28;20029;-69
2022/10/09 00:39:43;;;;;;;5.90;1.92;;;;;;;-140.72;100.00;52886.00;5046762;28;20318;-69
2022/10/09 00:42:12;;;;;;;3.30;1.88;;;;;;;-140.72;100.00;52908.31;5043825;28;20071;-69
2022/10/09 00:44:56;;;;;;;2.60;1.85;;;;;;;-140.72;100.00;52877.88;5045009;28;20033;-69
2022/10/09 00:47:30;;;;;;;2.75;1.38;;;;;;;-140.72;100.00;52877.88;5052221;28;20017;-70
2022/10/09 00:50:03;;;;;;;4.03;1.60;;;;;;;-140.72;100.00;52873.81;5041413;28;20499;-70
2022/10/09 00:52:31;;;;;;;2.78;1.50;;;;;;;-140.72;100.00;52932.66;5053063;28;20387;-72
2022/10/09 00:54:59;;;;;;;2.67;1.83;;;;;;;-140.72;100.00;52926.59;5052472;28;20458;-70
2022/10/09 00:57:24;;;;;;;3.55;1.60;;;;;;;-140.72;100.00;52898.16;5046292;28;20045;-70
2022/10/09 00:59:50;;;;;;;2.35;1.42;;;;;;;-140.72;100.00;52857.59;5053220;28;20110;-70
2022/10/09 01:02:16;;;;;;;2.53;1.27;;;;;;;-140.72;100.00;52906.28;5048271;28;20052;-70
2022/10/09 01:04:41;;;;;;;2.63;1.27;;;;;;;-140.72;100.00;52883.97;5042426;28;20029;-70
2022/10/09 01:07:21;;;;;;;3.00;2.00;;;;;;;-140.72;100.00;52881.94;5033869;28;20104;-70
2022/10/09 01:10:00;;;;;;;3.30;2.08;;;;;;;-140.72;100.00;52918.47;5045923;28;20408;-70
2022/10/09 01:12:53;;;;;;;4.65;1.67;;;;;;;-140.72;100.00;52890.06;5045174;28;20025;-70
2022/10/09 01:15:34;;;;;;;6.10;2.30;;;;;;;-140.72;100.00;52888.03;5033805;28;20068;-70
2022/10/09 01:18:18;;;;;;;4.40;2.20;;;;;;;-140.72;100.00;52896.16;5046800;28;20100;-70
2022/10/09 01:20:46;;;;;;;7.18;1.77;;;;;;;-140.72;100.00;52863.66;5052767;28;20029;-70
2022/10/09 01:23:49;;;;;;;1.90;1.42;;;;;;;-140.72;100.00;52857.59;5052389;28;20124;-70
2022/10/09 01:26:15;;;;;;;3.30;1.65;;;;;;;-140.72;100.00;52898.16;5033151;28;20434;-70
2022/10/09 01:28:44;;;;;;;2.63;2.03;;;;;;;-140.72;100.00;52926.59;5048128;28;20052;-70
2022/10/09 01:31:15;;;;;;;2.65;1.90;;;;;;;-140.72;100.00;52918.47;5052181;28;20017;-70
2022/10/09 01:33:44;;;;;;;3.65;1.80;;;;;;;-140.72;100.00;52902.22;5050927;28;20069;-70
2022/10/09 01:36:13;;;;;;;4.75;1.70;;;;;;;-140.72;100.00;52871.78;5052930;28;20048;-70
2022/10/09 01:38:41;;;;;;;5.03;2.40;;;;;;;-140.72;100.00;52855.56;5048461;28;20048;-70
2022/10/09 01:41:10;;;;;;;6.50;2.00;;;;;;;-140.72;100.00;52910.34;5043615;28;20403;-70
2022/10/09 01:43:40;;;;;;;3.33;1.88;;;;;;;-140.72;100.00;52881.94;5052553;28;20031;-70
2022/10/09 01:46:35;;;;;;;6.15;1.88;;;;;;;-140.72;100.00;52894.13;5051961;28;20024;-70
2022/10/09 01:49:09;;;;;;;1.67;1.17;;;;;;;-140.72;100.00;52918.47;5041242;28;20036;-70
2022/10/09 01:51:41;;;;;;;6.40;2.03;;;;;;;-140.72;100.00;52910.34;5050165;28;20452;-70
2022/10/09 01:54:10;;;;;;;2.97;1.55;;;;;;;-140.72;100.00;52910.34;5052630;28;20040;-70
2022/10/09 01:56:38;;;;;;;2.60;1.45;;;;;;;-140.72;100.00;52898.16;5052144;28;20425;-70
2022/10/09 01:59:11;;;;;;;8.13;2.22;;;;;;;-140.72;100.00;52888.03;5051690;28;20024;-70
2022/10/09 02:01:38;;;;;;;7.43;3.05;;;;;;;-140.72;100.00;52912.38;5052085;28;20012;-70
2022/10/09 02:04:09;;;;;;;3.63;2.05;;;;;;;-140.72;100.00;52831.19;5052800;28;20100;-70
2022/10/09 02:06:37;;;;;;;3.13;1.70;;;;;;;-140.72;100.00;52916.44;5051280;28;20047;-70
2022/10/09 02:09:07;;;;;;;2.15;1.52;;;;;;;-140.72;100.00;52902.22;5052345;28;20025;-70
2022/10/09 02:11:34;;;;;;;2.67;1.98;;;;;;;-140.72;100.00;52890.06;5039367;28;20025;-70
2022/10/09 02:14:00;;;;;;;4.90;1.92;;;;;;;-140.72;100.00;52912.38;5050276;28;20461;-70
2022/10/09 02:16:40;;;;;;;2.97;1.80;;;;;;;-140.72;100.00;52900.19;5051033;28;20047;-70
2022/10/09 02:19:15;;;;;;;4.18;2.35;;;;;;;-140.72;100.00;52900.19;5050536;28;20045;-70
2022/10/09 02:22:00;;;;;;;8.98;2.38;;;;;;;-140.72;100.00;52898.16;5051152;28;20025;-70
2022/10/09 02:24:27;;;;;;;5.07;2.47;;;;;;;-140.72;100.00;52906.28;5034875;28;20048;-70
2022/10/09 02:26:53;;;;;;;2.50;1.73;;;;;;;-140.72;100.00;52910.34;5050934;28;20028;-70
2022/10/09 02:29:19;;;;;;;4.03;1.50;;;;;;;-140.72;100.00;52886.00;5050375;28;20028;-70
2022/10/09 02:31:45;;;;;;;3.15;1.85;;;;;;;-140.72;100.00;52920.50;5037522;28;20155;-70
2022/10/09 02:34:15;;;;;;;2.90;1.70;;;;;;;-140.72;100.00;52938.75;5048905;28;20472;-70
2022/10/09 02:36:40;;;;;;;3.97;1.95;;;;;;;-140.72;100.00;52910.34;5049238;28;20028;-70
2022/10/09 02:39:07;;;;;;;3.13;2.00;;;;;;;-140.72;100.00;52906.28;5045653;28;20439;-70
2022/10/09 02:41:33;;;;;;;5.20;2.33;;;;;;;-140.72;100.00;52948.91;5031031;28;20037;-70
2022/10/09 02:43:58;;;;;;;3.42;1.85;;;;;;;-140.72;100.00;52950.94;5051366;28;20522;-70
2022/10/09 02:46:26;;;;;;;3.20;1.65;;;;;;;-140.72;100.00;52926.59;5048776;28;20028;-70
2022/10/09 02:48:52;;;;;;;4.45;1.85;;;;;;;-140.72;100.00;52946.88;5034060;28;20026;-70
2022/10/09 02:51:18;;;;;;;5.65;2.22;;;;;;;-140.72;100.00;52888.03;5046234;28;20017;-70
2022/10/09 02:53:43;;;;;;;7.70;2.50;;;;;;;-140.72;100.00;52950.94;5050321;28;20031;-70
2022/10/09 02:56:09;;;;;;;2.85;1.67;;;;;;;-140.72;100.00;52934.69;5050868;28;20025;-70
2022/10/09 02:58:35;;;;;;;5.82;2.33;;;;;;;-140.72;100.00;52934.69;5051229;28;20012;-70
2022/10/09 03:01:01;;;;;;;4.57;2.28;;;;;;;-140.72;100.00;52930.66;5047925;28;20025;-70
2022/10/09 03:03:27;;;;;;;4.15;2.28;;;;;;;-140.72;100.00;52914.41;5031120;28;20060;-70
2022/10/09 03:06:13;;;;;;;3.78;2.42;;;;;;;-140.72;100.00;52900.19;5032200;28;20048;-70
2022/10/09 03:08:41;;;;;;;3.70;1.95;;;;;;;-140.72;100.00;52908.31;5051494;28;20032;-70
2022/10/09 03:11:06;;;;;;;6.10;2.83;;;;;;;-140.72;100.00;52920.50;5051672;28;20392;-70
2022/10/09 03:13:32;;;;;;;3.10;2.13;;;;;;;-140.72;100.00;52926.59;5051753;28;20151;-69
2022/10/09 03:16:08;;;;;;;4.82;2.08;;;;;;;-140.72;100.00;52886.00;5050828;28;20025;-70
2022/10/09 03:18:34;;;;;;;8.20;2.40;;;;;;;-140.72;100.00;52910.34;5039310;28;20053;-70
2022/10/09 03:20:59;;;;;;;6.40;2.30;;;;;;;-140.72;100.00;52934.69;5045182;28;20402;-68
2022/10/09 03:23:25;;;;;;;3.53;2.40;;;;;;;-140.72;100.00;52918.47;5042168;28;20037;-68
2022/10/09 03:25:58;;;;;;;4.22;2.15;;;;;;;-140.72;100.00;52936.72;5040936;28;20385;-69
2022/10/09 03:28:24;;;;;;;6.60;2.33;;;;;;;-140.72;100.00;52894.13;5036723;28;20535;-68
2022/10/09 03:30:50;;;;;;;5.63;2.60;;;;;;;-140.72;100.00;52883.97;5051139;28;20052;-69
2022/10/09 03:33:15;;;;;;;3.53;2.15;;;;;;;-140.72;100.00;52920.50;5032503;28;20056;-69
2022/10/09 03:35:41;;;;;;;4.97;2.13;;;;;;;-140.72;100.00;52896.16;5043561;28;20039;-69
2022/10/09 03:38:06;;;;;;;6.78;1.88;;;;;;;-140.72;100.00;52942.81;5034507;28;20025;-69
2022/10/09 03:40:31;;;;;;;4.88;2.60;;;;;;;-140.72;100.00;52932.66;5035400;28;20036;-69
2022/10/09 03:42:57;;;;;;;5.50;2.65;;;;;;;-140.72;100.00;52898.16;5053958;28;20376;-70
2022/10/09 03:45:22;;;;;;;2.72;1.75;;;;;;;-140.72;100.00;52914.41;5054404;28;20595;-69
2022/10/09 03:47:48;;;;;;;3.65;2.30;;;;;;;-140.72;100.00;52942.81;5054962;28;20446;-69
2022/10/09 03:50:13;;;;;;;3.38;2.03;;;;;;;-140.72;100.00;52920.50;5042834;28;20033;-69
2022/10/09 03:52:39;;;;;;;2.70;2.00;;;;;;;-140.72;100.00;52936.72;5053711;28;20454;-69
2022/10/09 03:55:06;;;;;;;6.15;2.08;;;;;;;-140.72;100.00;52936.72;5050215;28;20017;-69
2022/10/09 03:57:31;;;;;;;5.75;2.13;;;;;;;-140.72;100.00;52916.44;5041569;28;20104;-69
2022/10/09 03:59:57;;;;;;;10.13;2.72;;;;;;;-140.72;100.00;52906.28;5045893;28;20099;-69
2022/10/09 04:02:22;;;;;;;5.22;2.10;;;;;;;-140.72;100.00;52910.34;5040770;28;20023;-69
2022/10/09 04:04:47;;;;;;;4.47;2.97;;;;;;;-140.72;100.00;52896.16;5048332;28;20025;-69
2022/10/09 04:07:13;;;;;;;2.97;2.00;;;;;;;-140.72;100.00;52928.63;5054632;28;20507;-69
2022/10/09 04:09:38;;;;;;;7.40;2.35;;;;;;;-140.72;100.00;52918.47;5053759;28;20024;-69
2022/10/09 04:12:04;;;;;;;3.90;2.10;;;;;;;-140.72;100.00;52906.28;5043907;28;20017;-69
2022/10/09 04:14:29;;;;;;;3.22;2.38;;;;;;;-140.72;100.00;52940.78;5050242;28;20024;-70
2022/10/09 04:16:54;;;;;;;3.72;2.42;;;;;;;-140.72;100.00;52910.34;5043950;28;20021;-69
2022/10/09 04:19:20;;;;;;;6.07;3.40;;;;;;;-140.72;100.00;52898.16;5050933;28;20048;-70
2022/10/09 04:21:45;;;;;;;7.10;2.90;;;;;;;-140.72;100.00;52914.41;5054791;28;20021;-69
2022/10/09 04:24:11;;;;;;;7.95;3.45;;;;;;;-140.72;100.00;52910.34;5049226;28;20037;-69
2022/10/09 04:26:36;;;;;;;5.82;2.63;;;;;;;-140.72;100.00;52910.34;5053489;28;20032;-69
2022/10/09 04:29:02;;;;;;;7.55;2.78;;;;;;;-140.72;100.00;52904.25;5054144;28;20020;-69
2022/10/09 04:31:27;;;;;;;7.50;2.67;;;;;;;-140.72;100.00;52918.47;5054260;28;20453;-69
2022/10/09 04:33:55;;;;;;;5.55;3.13;;;;;;;-140.72;100.00;52906.28;5050372;28;20056;-69
2022/10/09 04:36:21;;;;;;;3.20;2.35;;;;;;;-140.72;100.00;52873.81;5044014;28;20048;-70
2022/10/09 04:38:46;;;;;;;8.13;3.47;;;;;;;-140.72;100.00;52940.78;5053714;28;20112;-69
2022/10/09 04:41:12;;;;;;;8.40;3.50;;;;;;;-140.72;100.00;52914.41;5038460;28;20021;-70
2022/10/09 04:43:37;;;;;;;5.13;3.00;;;;;;;-140.72;100.00;52955.00;5053353;28;20023;-69
2022/10/09 04:46:05;;;;;;;5.97;3.45;;;;;;;-140.72;100.00;52930.66;5053396;28;20037;-69
2022/10/09 04:48:31;;;;;;;7.95;2.70;;;;;;;-140.72;100.00;52940.78;5036348;28;20021;-69
2022/10/09 04:50:56;;;;;;;4.43;2.63;;;;;;;-140.72;100.00;52908.31;5049193;28;20357;-69
2022/10/09 04:53:22;;;;;;;6.60;2.72;;;;;;;-140.72;100.00;52926.59;5051820;28;20417;-69
2022/10/09 04:55:47;;;;;;;9.05;3.40;;;;;;;-140.72;100.00;52934.69;5042759;28;20056;-69
2022/10/09 04:58:13;;;;;;;6.20;3.22;;;;;;;-140.72;100.00;52934.69;5053234;28;20381;-70
2022/10/09 05:00:40;;;;;;;6.95;3.92;;;;;;;-140.72;100.00;52922.53;5049218;28;20028;-69
2022/10/09 05:03:05;;;;;;;6.60;4.50;;;;;;;-140.72;100.00;52922.53;5039928;28;20055;-69
2022/10/09 05:05:31;;;;;;;3.72;3.25;;;;;;;-140.72;100.00;52920.50;5050116;28;20044;-69
2022/10/09 05:07:57;;;;;;;6.57;3.30;;;;;;;-140.72;100.00;52946.88;5051545;28;20342;-69
2022/10/09 05:10:25;;;;;;;5.18;3.45;;;;;;;-140.72;100.00;52955.00;5052472;28;20036;-70
2022/10/09 05:12:53;;;;;;;11.13;3.72;;;;;;;-140.72;100.00;52873.81;5046708;28;20021;-69
2022/10/09 05:15:19;;;;;;;6.75;2.90;;;;;;;-140.72;100.00;52944.84;5040833;28;20347;-69
2022/10/09 05:17:45;;;;;;;8.75;3.63;;;;;;;-140.72;100.00;52908.31;5046183;28;20033;-70
2022/10/09 05:20:10;;;;;;;5.97;3.45;;;;;;;-140.72;100.00;52912.38;5047839;28;20338;-69
2022/10/09 05:22:36;;;;;;;6.28;3.42;;;;;;;-140.72;100.00;52938.75;5041467;28;20033;-69
2022/10/09 05:25:04;;;;;;;9.15;4.20;;;;;;;-140.72;100.00;52957.03;5046416;28;20053;-69
2022/10/09 05:27:30;;;;;;;6.13;3.17;;;;;;;-140.72;100.00;52918.47;5044751;28;20365;-70
2022/10/09 05:29:55;;;;;;;5.53;3.20;;;;;;;-140.72;100.00;52926.59;5039676;28;20087;-69
2022/10/09 05:32:20;;;;;;;6.10;3.42;;;;;;;-140.72;100.00;52930.66;5045990;28;20060;-69
2022/10/09 05:34:46;;;;;;;11.85;3.33;;;;;;;-140.72;100.00;52910.34;5045113;28;20055;-70
2022/10/09 05:37:11;;;;;;;4.00;2.72;;;;;;;-140.72;100.00;52926.59;5050062;28;20021;-70
2022/10/09 05:39:37;;;;;;;5.28;2.78;;;;;;;-140.72;100.00;52914.41;5051831;28;20103;-69
2022/10/09 05:42:03;;;;;;;4.32;3.33;;;;;;;-140.72;100.00;52955.00;5038835;28;20027;-69
2022/10/09 05:44:28;;;;;;;5.80;2.90;;;;;;;-140.72;100.00;52938.75;5051072;28;20416;-68
2022/10/09 05:46:54;;;;;;;5.13;2.70;;;;;;;-140.72;100.00;52967.16;5041160;28;20029;-69
2022/10/09 05:49:19;;;;;;;3.70;2.78;;;;;;;-140.72;100.00;52920.50;5038416;28;20098;-69
2022/10/09 05:51:48;;;;;;;5.47;3.17;;;;;;;-140.72;100.00;52926.59;5035752;28;20029;-69
2022/10/09 05:54:16;;;;;;;6.50;3.05;;;;;;;-140.72;100.00;52946.88;5048303;28;20029;-69
2022/10/09 05:56:43;;;;;;;5.95;3.08;;;;;;;-140.72;100.00;52942.81;5045068;28;20055;-70
2022/10/09 05:59:14;;;;;;;3.97;2.33;;;;;;;-140.72;100.00;52926.59;5048566;28;20021;-69
2022/10/09 06:01:42;;;;;;;6.38;3.58;;;;;;;-140.72;100.00;52955.00;5039661;28;20017;-69
2022/10/09 06:04:12;;;;;;;4.18;2.70;;;;;;;-140.72;100.00;52944.84;5043808;28;20424;-69
2022/10/09 06:06:39;;;;;;;4.25;2.67;;;;;;;-140.72;100.00;52900.19;5048122;28;20025;-69
2022/10/09 06:09:08;;;;;;;8.57;3.10;;;;;;;-140.72;100.00;52946.88;5045541;28;20022;-69
2022/10/09 06:11:36;;;;;;;9.27;2.90;;;;;;;-140.72;100.00;52979.34;5045841;28;20024;-70
2022/10/09 06:14:04;;;;;;;6.63;4.30;;;;;;;-140.72;100.00;52920.50;5045838;28;20099;-70
2022/10/09 06:16:31;;;;;;;4.25;3.35;;;;;;;-140.72;100.00;52938.75;5045604;28;20029;-70
2022/10/09 06:18:58;;;;;;;4.68;3.15;;;;;;;-140.72;100.00;52946.88;5043612;28;20465;-70
2022/10/09 06:21:25;;;;;;;7.00;3.55;;;;;;;-140.72;100.00;52938.75;5045036;28;20021;-70
2022/10/09 06:23:52;;;;;;;4.80;3.10;;;;;;;-140.72;100.00;52967.16;5049295;28;20049;-70
2022/10/09 06:26:18;;;;;;;4.32;2.92;;;;;;;-140.72;100.00;52928.63;5047890;28;21391;-70
2022/10/09 06:28:44;;;;;;;6.93;3.45;;;;;;;-140.72;100.00;52914.41;5039854;28;20029;-70
2022/10/09 06:31:16;;;;;;;4.15;2.90;;;;;;;-140.72;100.00;52936.72;5040817;28;20025;-69
2022/10/09 06:33:43;;;;;;;5.00;3.17;;;;;;;-140.72;100.00;52934.69;5047887;28;20061;-69
2022/10/09 06:36:12;;;;;;;6.15;4.25;;;;;;;-140.72;100.00;52934.69;5051269;28;20373;-70
2022/10/09 06:38:38;;;;;;;6.63;4.72;;;;;;;-140.72;100.00;52934.69;5046615;28;20392;-70
2022/10/09 06:41:06;;;;;;;10.55;5.30;;;;;;;-140.72;100.00;52922.53;5040447;28;20021;-69
2022/10/09 06:43:32;;;;;;;5.18;4.00;;;;;;;-140.72;100.00;52888.03;5043306;28;20020;-69
2022/10/09 06:46:04;;;;;;;10.20;4.82;;;;;;;-140.72;100.00;52906.28;5046787;28;20024;-69
2022/10/09 06:48:34;;;;;;;7.07;4.13;;;;;;;-140.72;100.00;52932.66;5048643;28;20515;-69
2022/10/09 06:51:00;;;;;;;;;;;;;;;-140.72;100.00;52898.16;5043295;28;20089;-70
2022/10/09 06:53:25;;;;;;;9.48;5.18;;;;;;;-140.72;100.00;52920.50;5049607;28;19905;-69
2022/10/09 06:55:55;;;;;;;7.85;6.10;;;;;;;-140.72;100.00;52904.25;5046496;28;20409;-69
2022/10/09 06:58:20;;;;;;;10.23;7.55;;;;;;;-140.72;100.00;52912.38;5040306;28;20021;-69
2022/10/09 07:00:46;;;;;;;13.25;9.00;;;;;;;-140.72;100.00;52881.94;5033797;28;20017;-69
2022/10/09 07:03:12;;;;;;;11.88;8.73;;;;;;;-140.72;100.00;52883.97;5046904;28;20017;-70
2022/10/09 07:05:38;;;;;;;13.00;8.52;;;;;;;-140.72;100.00;52920.50;5047305;28;20487;-69
2022/10/09 07:08:03;;;;;;;10.90;8.55;;;;;;;-140.72;100.00;52906.28;5044865;28;20029;-69
2022/10/09 07:10:28;;;;;;;11.00;8.68;;;;;;;-140.72;100.00;52845.41;5041257;28;20025;-69
2022/10/09 07:12:54;;;;;;;17.25;9.05;;;;;;;-140.72;100.00;52940.78;5039530;28;20377;-69
2022/10/09 07:15:19;;;;;;;13.90;9.65;;;;;;;-140.72;100.00;52910.34;5051514;28;20032;-70
2022/10/09 07:17:44;;;;;;;12.35;9.32;;;;;;;-140.72;100.00;52920.50;5047043;28;20472;-69
2022/10/09 07:20:10;;;;;;;11.63;10.00;;;;;;;-140.72;100.00;52881.94;5048980;28;20017;-70
2022/10/09 07:22:35;;;;;;;11.40;8.77;;;;;;;-140.72;100.00;52922.53;5048256;28;20041;-69
2022/10/09 07:25:02;;;;;;;12.35;8.13;;;;;;;-140.72;100.00;52912.38;5043987;28;20112;-69
2022/10/09 07:27:27;;;;;;;12.98;9.07;;;;;;;-140.72;100.00;52910.34;5051215;28;20024;-70
2022/10/09 07:29:52;;;;;;;10.50;7.45;;;;;;;-140.72;100.00;52890.06;5053102;28;20029;-69
2022/10/09 07:32:18;;;;;;;12.93;8.23;;;;;;;-140.72;100.00;52910.34;5050418;28;20024;-69
2022/10/09 07:34:43;;;;;;;14.25;9.32;;;;;;;-140.72;100.00;52902.22;5053584;28;20159;-70
2022/10/09 07:37:09;;;;;;;17.77;9.68;;;;;;;-140.72;100.00;52890.06;5050364;28;20032;-69
2022/10/09 07:39:35;;;;;;;14.07;8.70;;;;;;;-140.72;100.00;52881.94;5052170;28;20025;-69
2022/10/09 07:42:01;;;;;;;11.55;7.90;;;;;;;-140.72;100.00;52888.03;5053161;28;20025;-70
2022/10/09 07:44:27;;;;;;;11.13;7.25;;;;;;;-140.72;100.00;52894.13;5052472;28;20017;-69
2022/10/09 07:46:52;;;;;;;8.55;7.07;;;;;;;-140.72;100.00;52861.66;5052252;28;20025;-70
2022/10/09 07:49:18;;;;;;;15.55;8.68;;;;;;;-140.72;100.00;52871.78;5052744;28;20032;-69
2022/10/09 07:51:44;;;;;;;7.70;6.40;;;;;;;-140.72;100.00;52896.16;5046714;28;20116;-67
2022/10/09 07:54:09;;;;;;;11.65;6.38;;;;;;;-140.72;100.00;52888.03;5053127;28;20032;-68
2022/10/09 07:56:36;;;;;;;7.40;5.45;;;;;;;-140.72;100.00;52890.06;5052415;28;20017;-68
2022/10/09 07:59:05;;;;;;;7.63;5.78;;;;;;;-140.72;100.00;52841.34;5052987;28;20025;-69
2022/10/09 08:01:33;;;;;;;10.10;6.00;;;;;;;-140.72;100.00;52821.06;5042635;28;20032;-68
2022/10/09 08:03:59;;;;;;;8.25;5.90;;;;;;;-140.72;100.00;52881.94;5049798;28;20024;-68
2022/10/09 08:06:25;;;;;;;9.60;5.10;;;;;;;-140.72;100.00;52898.16;5040484;28;20036;-69
2022/10/09 08:08:52;;;;;;;7.32;4.75;;;;;;;-140.72;100.00;52886.00;5047714;28;20457;-69
2022/10/09 08:11:18;;;;;;;9.77;4.95;;;;;;;-140.72;100.00;52845.41;5048853;28;20356;-69
2022/10/09 08:13:45;;;;;;;7.88;4.63;;;;;;;-140.72;100.00;52823.09;5047736;28;20032;-68
2022/10/09 08:16:11;;;;;;;6.20;3.58;;;;;;;-140.72;100.00;52875.84;5047289;28;20032;-68
2022/10/09 08:18:36;;;;;;;7.93;3.92;;;;;;;-140.72;100.00;52861.66;5048127;28;20021;-68
2022/10/09 08:21:10;;;;;;;4.93;3.17;;;;;;;-140.72;100.00;52853.53;5048941;28;20021;-69
2022/10/09 08:23:35;;;;;;;5.47;3.75;;;;;;;-140.72;100.00;52871.78;5047223;28;20389;-68
2022/10/09 08:26:01;;;;;;;7.57;3.50;;;;;;;-140.72;100.00;52873.81;5050186;28;20037;-67
2022/10/09 08:28:27;;;;;;;5.03;3.35;;;;;;;-140.72;100.00;52847.44;5048762;28;20025;-68
2022/10/09 08:30:52;;;;;;;4.93;2.90;;;;;;;-140.72;100.00;52825.13;5048527;28;20029;-68
2022/10/09 08:33:20;;;;;;;4.43;3.17;;;;;;;-140.72;100.00;52857.59;5050093;28;20484;-69
2022/10/09 08:35:47;;;;;;;3.72;2.72;;;;;;;-140.72;100.00;52837.28;5044786;28;20029;-69
2022/10/09 08:38:13;;;;;;;7.60;3.65;;;;;;;-140.72;100.00;52853.53;5050439;28;20021;-67
2022/10/09 08:40:50;;;;;;;6.47;3.65;;;;;;;-140.72;100.00;52851.50;5039179;28;20107;-68
2022/10/09 08:43:22;;;;;;;4.88;3.10;;;;;;;-140.72;100.00;52873.81;5042951;28;20083;-70
2022/10/09 08:45:49;;;;;;;7.82;3.15;;;;;;;-140.72;100.00;52812.94;5049573;28;20465;-69
2022/10/09 08:48:19;;;;;;;7.97;3.65;;;;;;;-140.72;100.00;52827.16;5044659;28;20052;-68
2022/10/09 08:50:52;;;;;;;3.70;2.95;;;;;;;-140.72;100.00;52835.25;5049189;28;20515;-68
2022/10/09 08:53:41;;;;;;;9.23;3.42;;;;;;;-140.72;100.00;52821.06;5040545;28;20469;-69
2022/10/09 08:56:12;;;;;;;9.53;3.03;;;;;;;-140.72;100.00;52821.06;5049397;28;20082;-72
2022/10/09 08:58:39;;;;;;;5.78;3.00;;;;;;;-140.72;100.00;52841.34;5050305;28;20477;-71
2022/10/09 09:01:30;;;;;;;4.47;3.25;;;;;;;-140.72;100.00;52806.84;5049048;28;20421;-68
2022/10/09 09:04:26;;;;;;;5.10;2.85;;;;;;;-140.72;100.00;52798.72;5045706;28;20658;-71
2022/10/09 09:07:13;;;;;;;7.63;3.35;;;;;;;-140.72;100.00;52788.59;5046218;28;20155;-68
2022/10/09 09:09:58;;;;;;;4.40;3.33;;;;;;;-140.72;100.00;52802.78;5046114;28;20025;-68
2022/10/09 09:12:33;;;;;;;4.93;2.97;;;;;;;-140.72;100.00;52843.38;5046911;28;20025;-69
2022/10/09 09:15:21;;;;;;;8.13;3.00;;;;;;;-140.72;100.00;52823.09;5045946;28;20024;-69
2022/10/09 09:18:18;;;;;;;3.60;2.25;;;;;;;-140.72;100.00;52782.50;5049937;28;20461;-69
2022/10/09 09:21:04;;;;;;;6.65;2.40;;;;;;;-140.72;100.00;52782.50;5041289;28;20028;-66
2022/10/09 09:23:37;;;;;;;4.97;2.05;;;;;;;-140.72;100.00;52782.50;5041153;28;20044;-68
2022/10/09 09:26:12;;;;;;;4.15;1.83;;;;;;;-140.72;100.00;52802.78;5046043;28;20491;-67
2022/10/09 09:28:40;;;;;;;4.97;2.10;;;;;;;-140.72;100.00;52810.91;5047137;28;20025;-68
2022/10/09 09:31:22;;;;;;;6.05;1.83;;;;;;;-140.72;100.00;52764.25;5047331;28;20412;-67
2022/10/09 09:34:03;;;;;;;4.97;2.10;;;;;;;-140.72;100.00;52756.13;5047628;28;20032;-69
2022/10/09 09:36:34;;;;;;;4.97;1.88;;;;;;;-140.72;100.00;52748.00;5042176;28;20322;-66
2022/10/09 09:39:00;;;;;;;3.05;1.52;;;;;;;-140.72;100.00;52790.63;5038406;28;20020;-67
2022/10/09 09:41:27;;;;;;;4.05;1.55;;;;;;;-140.72;100.00;52776.41;5048583;28;20025;-67
2022/10/09 09:43:52;;;;;;;3.10;1.45;;;;;;;-140.72;100.00;52723.66;5047917;28;20373;-72
2022/10/09 09:46:21;;;;;;;5.47;1.75;;;;;;;-140.72;100.00;52770.31;5043466;28;20041;-68
2022/10/09 09:48:48;;;;;;;4.28;1.67;;;;;;;-140.72;100.00;52756.13;5049037;28;20028;-67
2022/10/09 09:51:20;;;;;;;3.85;1.70;;;;;;;-140.72;100.00;52735.81;5048547;28;20033;-70
2022/10/09 09:53:52;;;;;;;1.90;1.15;;;;;;;-140.72;100.00;52766.25;5049302;28;20060;-68
2022/10/09 09:56:18;;;;;;;3.78;1.65;;;;;;;-140.72;100.00;52733.78;5040206;28;20067;-70
2022/10/09 09:58:47;;;;;;;1.92;1.27;;;;;;;-140.72;100.00;52717.56;5045414;28;20417;-73
2022/10/09 10:01:25;;;;;;;2.70;1.63;;;;;;;-140.72;100.00;52750.03;5045712;28;20079;-68
2022/10/09 10:03:53;;;;;;;9.18;1.33;;;;;;;-140.72;100.00;52750.03;5039672;28;20017;-68
2022/10/09 10:06:21;;;;;;;5.72;1.50;;;;;;;-140.72;100.00;52754.09;5045131;28;20053;-69
2022/10/09 10:08:57;;;;;;;3.75;1.60;;;;;;;-140.72;100.00;52776.41;5043315;28;20606;-68
2022/10/09 10:11:23;;;;;;;3.40;1.00;;;;;;;-140.72;100.00;52737.84;5047396;28;20107;-66
2022/10/09 10:13:48;;;;;;;2.78;1.30;;;;;;;-140.72;100.00;52748.00;5042469;28;20035;-71
2022/10/09 10:16:41;;;;;;;3.00;1.52;;;;;;;-140.72;100.00;52760.19;5041387;28;20021;-68
2022/10/09 10:19:19;;;;;;;3.78;1.02;;;;;;;-140.72;100.00;52727.72;5045452;28;20047;-68
2022/10/09 10:21:55;;;;;;;3.92;1.00;;;;;;;-140.72;100.00;52689.16;5046879;28;20027;-67
2022/10/09 10:24:26;;;;;;;2.38;1.10;;;;;;;-140.72;100.00;52721.63;5048605;28;20044;-66
2022/10/09 10:27:04;;;;;;;4.05;1.30;;;;;;;-140.72;100.00;52685.09;5050223;28;20033;-72
2022/10/09 10:29:37;;;;;;;2.85;1.20;;;;;;;-140.72;100.00;52699.31;5047904;28;20028;-71
2022/10/09 10:32:19;;;;;;;11.07;2.10;;;;;;;-140.72;100.00;52691.19;5046865;28;20137;-70
2022/10/09 10:34:59;;;;;;;4.95;1.27;;;;;;;-140.72;100.00;52705.38;5047304;28;20117;-67
2022/10/09 10:37:27;;;;;;;;;;;;;;;-140.72;100.00;52674.94;5048288;28;20032;-67
2022/10/09 10:40:01;;;;;;;7.68;1.30;;;;;;;-140.72;100.00;52654.66;5045055;28;19966;-72
2022/10/09 10:42:56;;;;;;;6.63;1.80;;;;;;;-140.72;100.00;52601.91;5045891;28;20028;-74
2022/10/09 10:45:29;;;;;;;4.80;1.20;;;;;;;-140.72;100.00;52591.75;5044375;28;20033;-68
2022/10/09 10:47:59;;;;;;;5.53;0.95;;;;;;;-140.72;100.00;52510.59;5041118;28;20377;-68
2022/10/09 10:50:28;;;;;;;;;;;;;;;-140.72;0.00;52482.16;5046031;28;20029;-67
2022/10/09 10:53:09;;;;;;;1.98;0.88;;;;;;;-140.72;0.00;52455.78;5042389;28;19939;-68
2022/10/09 10:55:54;;;;;;;2.05;0.98;;;;;;;-140.72;0.00;52407.09;5047860;28;20032;-70
2022/10/09 10:58:38;;;;;;;5.63;1.30;;;;;;;-140.72;0.00;52403.03;5043510;28;20454;-69
2022/10/09 11:01:37;;;;;;;3.95;1.40;;;;;;;-140.72;0.00;52398.97;5041057;28;20122;-71
2022/10/09 11:04:32;;;;;;;1.45;0.68;;;;;;;-140.72;0.00;52384.78;5046849;28;20036;-68
2022/10/09 11:07:23;;;;;;;1.85;0.82;;;;;;;-140.72;0.00;52366.50;5044370;28;20017;-72
2022/10/09 11:10:04;;;;;;;3.90;1.10;;;;;;;-140.72;0.00;52350.28;5045068;28;20023;-66
2022/10/09 11:12:36;;;;;;;2.38;0.85;;;;;;;-140.72;0.00;52323.91;5045847;28;20021;-67
2022/10/09 11:15:20;;;;;;;3.55;0.80;;;;;;;-140.72;0.00;52340.13;5039508;28;20461;-68
2022/10/09 11:18:08;;;;;;;1.77;0.73;;;;;;;-140.72;0.00;52301.59;5047432;28;20067;-67
2022/10/09 11:20:42;;;;;;;3.08;0.80;;;;;;;-140.72;0.00;52317.81;5040617;28;20121;-67